Allenton, WI (53002)

4:22 PM CDT on July 26, 2016 (GMT -0500)
APRSWXNET | | Change Station

Elev 1099 ft 43.45 °N, 88.26 °W | Updated 24 minutes ago

Scattered Clouds
Scattered Clouds
84 °F
Feels Like 88 °F
N
1
Wind Variable Wind from NW
Gusts 8.0 mph

Today
High -- | Low -- °F
--% Chance of Precip.
Yesterday
High -- | Low -- °F
Precip. -- in
Pressure 30.03 in
Visibility 10.0 miles
Clouds Scattered Clouds 5000 ft
Heat Index 88 °F
Dew Point 69 °F
Humidity 61%
Rainfall in
Snow Depth Not available.
5:37 AM 8:21 PM
Waning Gibbous, 51% visible
METAR KETB 262050Z AUTO 28008KT 10SM SCT050 30/15 A3003 RMK AO2
Pressure 30.03 in
Visibility 10.0 miles
Clouds Scattered Clouds 5000 ft
Heat Index 88 °F
Dew Point 69 °F
Humidity 61%
Rainfall in
Snow Depth Not available.
5:37 AM 8:21 PM
Waning Gibbous, 51% visible
METAR KETB 262050Z AUTO 28008KT 10SM SCT050 30/15 A3003 RMK AO2

10-Day Weather Forecast

Almanac

Astronomy

Jul. 26, 2016 Rise Set
Actual Time
Civil Twilight
Nautical Twilight
Astronomical Twilight
Moon
Length of Visible Light
Length of Day
Tomorrow will be .
, % of the Moon is Illuminated

Today's Extremes

State Highs State Lows

Community

WunderPhotos

Upload Photos

1,927,702 photos uploaded!

WunderBlog® & News

Nearby

Air Quality

  Air Quality AQ Index Pollutant
Not available.

Snow Depth

Station Depth Elevation

Earthquake Activity

City Distance Mag. Time & Date
Minimum magnitude displayed is 2.5.

Coastal Water Temperatures

Place Temperature

Stations

Nearby Weather Stations

Station Location Temp. Windchill Dew Point Humidity Wind Precip. Elev Updated Type
                   

Watches & Warnings

There are currently no watches in effect.